Time;durP1;ratioP1;P1;durP2;ratioP2;P2;SDS_P1;SDS_P2;PMS_P1;PMS_P2;Temp;Humidity;BMP_temperature;BMP_pressure;BME280_temperature;BME280_humidity;BME280_pressure;Samples;Min_cycle;Max_cycle;Signal;HPM_P1;HPM_P2
2024/04/08 00:00:40;;;;;;;9.02;0.98;;;14.20;99.90;;;;;;5011556;28;20538;-74
2024/04/08 00:03:05;;;;;;;;;;;14.20;99.90;;;;;;5011915;28;20068;-74
2024/04/08 00:05:31;;;;;;;5.07;0.75;;;14.20;99.90;;;;;;5011368;28;19910;-74
2024/04/08 00:07:58;;;;;;;3.70;0.85;;;14.30;99.90;;;;;;5010316;28;20113;-75
2024/04/08 00:10:23;;;;;;;6.10;0.90;;;14.30;99.90;;;;;;5026526;28;20030;-74
2024/04/08 00:12:49;;;;;;;3.83;1.27;;;14.30;99.90;;;;;;5011199;28;20045;-75
2024/04/08 00:15:16;;;;;;;2.60;0.88;;;14.30;99.90;;;;;;5021011;28;20121;-75
2024/04/08 00:17:42;;;;;;;3.22;1.00;;;14.30;99.90;;;;;;5026454;28;20057;-75
2024/04/08 00:20:10;;;;;;;5.22;1.80;;;14.20;99.90;;;;;;5011021;28;20120;-74
2024/04/08 00:22:36;;;;;;;2.65;1.05;;;14.10;99.90;;;;;;5026412;28;20088;-74
2024/04/08 00:25:02;;;;;;;5.25;2.30;;;14.10;99.90;;;;;;5025993;28;20030;-74
2024/04/08 00:27:28;;;;;;;;;;;14.00;99.90;;;;;;5011420;28;20427;-74
2024/04/08 00:29:54;;;;;;;5.18;1.95;;;13.80;99.90;;;;;;5026237;28;20333;-74
2024/04/08 00:32:19;;;;;;;;;;;13.70;99.90;;;;;;5026675;28;20030;-75
2024/04/08 00:34:45;;;;;;;4.03;1.02;;;13.60;99.90;;;;;;5010152;28;19995;-75
2024/04/08 00:37:10;;;;;;;;;;;13.50;99.90;;;;;;5026549;28;20168;-75
2024/04/08 00:39:36;;;;;;;1.67;0.77;;;13.40;99.90;;;;;;5010992;28;19910;-75
2024/04/08 00:42:02;;;;;;;3.53;0.77;;;13.30;99.90;;;;;;5009622;28;20054;-74
2024/04/08 00:44:28;;;;;;;3.97;0.77;;;13.20;99.90;;;;;;5009934;28;20022;-74
2024/04/08 00:46:54;;;;;;;5.40;0.60;;;13.20;99.90;;;;;;5009643;28;20037;-75
2024/04/08 00:49:20;;;;;;;;;;;13.10;99.90;;;;;;5011121;28;20532;-74
2024/04/08 00:51:47;;;;;;;3.28;1.05;;;13.10;99.90;;;;;;5010699;28;19905;-75
2024/04/08 00:54:13;;;;;;;1.98;0.80;;;13.00;99.90;;;;;;5010596;28;20038;-75
2024/04/08 00:56:39;;;;;;;;;;;12.90;99.90;;;;;;5010960;28;20030;-74
2024/04/08 00:59:06;;;;;;;2.92;0.93;;;12.90;99.90;;;;;;5010549;28;19959;-74
2024/04/08 01:01:33;;;;;;;9.00;1.42;;;12.80;99.90;;;;;;5010361;28;20029;-75
2024/04/08 01:03:58;;;;;;;3.95;1.02;;;12.70;99.90;;;;;;5009248;28;20049;-74
2024/04/08 01:06:24;;;;;;;;;;;12.60;99.90;;;;;;5009496;28;20532;-73
2024/04/08 01:08:50;;;;;;;2.28;1.20;;;12.60;99.90;;;;;;5025398;28;19909;-74
2024/04/08 01:11:17;;;;;;;2.45;1.20;;;12.60;99.90;;;;;;5010267;28;20069;-74
2024/04/08 01:13:43;;;;;;;4.20;1.15;;;12.50;99.90;;;;;;5009010;28;20100;-75
2024/04/08 01:16:09;;;;;;;2.85;1.13;;;12.50;99.90;;;;;;5010308;28;20406;-74
2024/04/08 01:18:34;;;;;;;;;;;12.50;99.90;;;;;;5009281;28;20812;-75
2024/04/08 01:21:00;;;;;;;5.65;1.45;;;12.50;99.90;;;;;;5003738;28;20000;-75
2024/04/08 01:23:28;;;;;;;3.90;1.50;;;12.40;99.90;;;;;;5025619;28;20052;-75
2024/04/08 01:25:55;;;;;;;3.67;1.20;;;12.50;99.90;;;;;;5009233;28;20040;-75
2024/04/08 01:28:21;;;;;;;1.63;0.90;;;12.40;99.90;;;;;;5010099;28;20061;-74
2024/04/08 01:30:49;;;;;;;3.65;0.90;;;12.40;99.90;;;;;;5010113;28;20097;-75
2024/04/08 01:33:16;;;;;;;5.65;1.27;;;12.40;99.90;;;;;;5025178;28;20026;-74
2024/04/08 01:35:42;;;;;;;3.35;0.90;;;12.40;99.90;;;;;;5009276;28;20081;-74
2024/04/08 01:38:07;;;;;;;;;;;12.40;99.90;;;;;;5025291;28;20029;-74
2024/04/08 01:40:33;;;;;;;5.53;0.95;;;12.40;99.90;;;;;;5025075;28;20683;-74
2024/04/08 01:42:59;;;;;;;;;;;12.40;99.90;;;;;;5010277;28;20042;-75
2024/04/08 01:45:24;;;;;;;4.53;1.33;;;12.30;99.90;;;;;;5009752;28;19909;-76
2024/04/08 01:47:50;;;;;;;;;;;12.30;99.90;;;;;;5010267;28;20026;-75
2024/04/08 01:50:15;;;;;;;3.72;1.20;;;12.30;99.90;;;;;;5008665;28;20021;-74
2024/04/08 01:52:41;;;;;;;;;;;12.20;99.90;;;;;;5010050;28;20022;-75
2024/04/08 01:55:07;;;;;;;2.40;1.10;;;12.20;99.90;;;;;;5009773;28;19910;-75
2024/04/08 01:57:32;;;;;;;;;;;12.20;99.90;;;;;;5009142;28;20026;-74
2024/04/08 01:59:58;;;;;;;4.75;1.02;;;12.20;99.90;;;;;;5024807;28;19906;-74
2024/04/08 02:02:24;;;;;;;2.35;0.80;;;12.20;99.90;;;;;;5009655;28;20062;-74
2024/04/08 02:04:50;;;;;;;2.47;0.73;;;12.20;99.90;;;;;;5024924;28;20029;-75
2024/04/08 02:07:16;;;;;;;2.78;0.88;;;12.20;99.90;;;;;;5024974;28;20065;-74
2024/04/08 02:09:42;;;;;;;2.38;1.15;;;12.20;99.90;;;;;;5008203;28;20038;-74
2024/04/08 02:12:07;;;;;;;;;;;12.20;99.90;;;;;;5008886;28;20030;-75
2024/04/08 02:14:33;;;;;;;3.40;0.90;;;12.20;99.90;;;;;;5024826;28;19910;-74
2024/04/08 02:16:59;;;;;;;;;;;12.10;99.90;;;;;;5009972;28;20499;-75
2024/04/08 02:19:25;;;;;;;2.72;0.70;;;12.10;99.90;;;;;;5009377;28;19925;-75
2024/04/08 02:21:50;;;;;;;;;;;12.10;99.90;;;;;;5008583;28;20038;-75
2024/04/08 02:24:16;;;;;;;4.45;0.98;;;12.10;99.90;;;;;;5009524;28;19909;-75
2024/04/08 02:26:42;;;;;;;;;;;12.10;99.90;;;;;;5004481;28;20026;-75
2024/04/08 02:29:07;;;;;;;4.88;0.82;;;12.10;99.90;;;;;;5009462;28;19909;-75
2024/04/08 02:31:33;;;;;;;;;;;12.10;99.90;;;;;;5008428;28;20034;-75
2024/04/08 02:33:58;;;;;;;4.60;0.70;;;12.10;99.90;;;;;;5009438;28;20486;-75
2024/04/08 02:36:24;;;;;;;;;;;12.10;99.90;;;;;;5008505;28;20503;-75
2024/04/08 02:38:50;;;;;;;3.55;0.68;;;12.10;99.90;;;;;;5024372;28;19960;-74
2024/04/08 02:41:15;;;;;;;5.97;0.98;;;12.10;99.90;;;;;;5007939;28;20026;-74
2024/04/08 02:43:41;;;;;;;;;;;12.10;99.90;;;;;;5009257;28;20095;-75
2024/04/08 02:46:07;;;;;;;3.25;0.70;;;12.10;99.90;;;;;;5008426;28;19906;-75
2024/04/08 02:48:32;;;;;;;;;;;12.00;99.90;;;;;;5011006;28;20026;-75
2024/04/08 02:50:58;;;;;;;2.53;0.75;;;12.00;99.90;;;;;;5009845;28;19905;-74
2024/04/08 02:53:24;;;;;;;;;;;12.00;99.90;;;;;;5010233;28;20037;-75
2024/04/08 02:56:00;;;;;;;4.45;0.65;;;11.90;99.90;;;;;;5011271;28;20008;-75
2024/04/08 02:58:25;;;;;;;4.30;0.70;;;11.90;99.90;;;;;;5011096;28;20034;-74
2024/04/08 03:00:51;;;;;;;;;;;11.90;99.90;;;;;;5011701;28;20101;-75
2024/04/08 03:03:18;;;;;;;1.58;0.50;;;11.90;99.90;;;;;;5026221;28;19918;-75
2024/04/08 03:05:44;;;;;;;3.05;0.40;;;11.80;99.90;;;;;;5010873;28;20034;-74
2024/04/08 03:08:10;;;;;;;;;;;11.80;99.90;;;;;;5011180;28;20514;-74
2024/04/08 03:10:35;;;;;;;2.65;0.80;;;11.80;99.90;;;;;;5011012;28;19917;-74
2024/04/08 03:13:01;;;;;;;;;;;11.80;99.90;;;;;;5011080;28;20032;-74
2024/04/08 03:15:26;;;;;;;2.88;0.93;;;11.70;99.90;;;;;;5010664;28;19917;-75
2024/04/08 03:17:52;;;;;;;;;;;11.70;99.90;;;;;;5026313;28;20026;-74
2024/04/08 03:20:18;;;;;;;4.57;0.70;;;11.70;99.90;;;;;;5010495;28;19921;-74
2024/04/08 03:22:43;;;;;;;;;;;11.70;99.90;;;;;;5011166;28;20045;-76
2024/04/08 03:25:09;;;;;;;1.63;0.60;;;11.70;99.90;;;;;;5005558;28;19909;-73
2024/04/08 03:27:34;;;;;;;;;;;11.80;99.90;;;;;;5010979;28;20131;-76
2024/04/08 03:30:00;;;;;;;1.48;0.43;;;11.80;99.90;;;;;;5010854;28;19913;-73
2024/04/08 03:32:26;;;;;;;;;;;11.90;99.90;;;;;;5011076;28;20513;-76
2024/04/08 03:34:51;;;;;;;5.95;0.82;;;11.80;99.90;;;;;;5026712;28;19910;-75
2024/04/08 03:37:17;;;;;;;;;;;11.80;99.90;;;;;;5010674;28;20457;-76
2024/04/08 03:39:47;;;;;;;1.75;0.50;;;11.70;99.90;;;;;;5027272;28;20440;-73
2024/04/08 03:42:12;;;;;;;3.00;0.85;;;11.70;99.90;;;;;;5010421;28;20404;-74
2024/04/08 03:44:38;;;;;;;;;;;11.60;99.90;;;;;;5012280;28;20033;-74
2024/04/08 03:47:04;;;;;;;4.82;1.00;;;11.60;99.90;;;;;;5026944;28;19920;-77
2024/04/08 03:49:29;;;;;;;;;;;11.60;99.90;;;;;;5012126;28;20505;-75
2024/04/08 03:51:55;;;;;;;1.55;0.80;;;11.50;99.90;;;;;;5010115;28;20454;-76
2024/04/08 03:54:20;;;;;;;;;;;11.50;99.90;;;;;;5010716;28;20034;-76
2024/04/08 03:56:46;;;;;;;2.05;0.73;;;11.50;99.90;;;;;;5011725;28;19913;-76
2024/04/08 03:59:11;;;;;;;;;;;11.50;99.90;;;;;;5011113;28;20205;-76
2024/04/08 04:01:37;;;;;;;3.75;0.70;;;11.40;99.90;;;;;;5010070;28;19909;-75
2024/04/08 04:04:03;;;;;;;;;;;11.40;99.90;;;;;;5011895;28;20061;-76
2024/04/08 04:06:28;;;;;;;3.08;1.00;;;11.40;99.90;;;;;;5011355;28;19909;-74
2024/04/08 04:08:54;;;;;;;;;;;11.40;99.90;;;;;;5011572;28;20076;-75
2024/04/08 04:11:19;;;;;;;1.20;0.68;;;11.40;99.90;;;;;;5026526;28;19913;-76
2024/04/08 04:13:45;;;;;;;;;;;11.40;99.90;;;;;;5010555;28;20077;-76
2024/04/08 04:16:11;;;;;;;6.13;0.85;;;11.40;99.90;;;;;;5026647;28;19913;-75
2024/04/08 04:18:37;;;;;;;2.88;0.80;;;11.30;99.90;;;;;;5026005;28;20503;-74
2024/04/08 04:21:03;;;;;;;;;;;11.40;99.90;;;;;;5010335;28;20037;-77
2024/04/08 04:23:28;;;;;;;4.35;1.05;;;11.40;99.90;;;;;;5009840;28;20289;-75
2024/04/08 04:25:57;;;;;;;;;;;11.40;99.90;;;;;;5011583;28;20038;-74
2024/04/08 04:28:23;;;;;;;3.20;0.70;;;11.50;99.90;;;;;;5025883;28;20309;-75
2024/04/08 04:30:56;;;;;;;2.53;0.80;;;11.60;99.90;;;;;;5010801;28;20097;-75
2024/04/08 04:33:23;;;;;;;6.13;1.75;;;11.70;99.90;;;;;;5010881;28;20041;-76
2024/04/08 04:35:55;;;;;;;9.98;1.48;;;11.80;99.90;;;;;;5010799;28;20083;-74
2024/04/08 04:38:21;;;;;;;4.63;1.58;;;11.90;99.90;;;;;;5010803;28;20037;-73
2024/04/08 04:40:46;;;;;;;;;;;12.00;99.90;;;;;;5026407;28;20022;-76
2024/04/08 04:43:12;;;;;;;5.10;1.48;;;12.20;99.90;;;;;;5010609;28;19925;-74
2024/04/08 04:45:38;;;;;;;;;;;12.40;99.90;;;;;;5011003;28;20022;-73
2024/04/08 04:48:04;;;;;;;3.60;1.00;;;12.70;99.90;;;;;;5009503;28;19916;-73
2024/04/08 04:50:32;;;;;;;;;;;13.10;99.90;;;;;;5011053;28;20030;-72
2024/04/08 04:52:58;;;;;;;4.82;1.35;;;13.40;99.90;;;;;;5009004;28;19909;-72
2024/04/08 04:55:24;;;;;;;;;;;13.70;99.90;;;;;;5009516;28;20099;-73
2024/04/08 04:57:49;;;;;;;3.55;1.58;;;14.10;99.90;;;;;;5025512;28;19909;-73
2024/04/08 05:00:15;;;;;;;3.20;1.23;;;14.40;99.90;;;;;;5025799;28;20026;-72
2024/04/08 05:02:42;;;;;;;;;;;14.70;99.90;;;;;;5010980;28;20534;-73
2024/04/08 05:05:09;;;;;;;4.88;1.13;;;15.00;99.90;;;;;;5025376;28;19952;-73
2024/04/08 05:07:34;;;;;;;4.82;1.30;;;15.30;99.90;;;;;;5010332;28;20548;-73
2024/04/08 05:10:00;;;;;;;5.90;1.20;;;15.50;99.90;;;;;;5010070;28;20025;-76
2024/04/08 05:12:26;;;;;;;10.35;1.60;;;15.80;99.90;;;;;;5009132;28;20043;-76
2024/04/08 05:14:51;;;;;;;9.63;1.00;;;16.10;99.30;;;;;;5010222;28;20116;-75
2024/04/08 05:17:17;;;;;;;5.38;0.98;;;16.50;97.90;;;;;;5025401;28;20026;-75
2024/04/08 05:19:43;;;;;;;2.17;0.80;;;17.00;96.40;;;;;;5010117;28;20078;-74
2024/04/08 05:22:16;;;;;;;5.68;1.55;;;17.40;94.30;;;;;;5010055;28;20045;-75
2024/04/08 05:24:41;;;;;;;6.40;1.17;;;18.00;91.70;;;;;;5010033;28;20178;-75
2024/04/08 05:27:07;;;;;;;9.48;0.60;;;18.60;88.00;;;;;;5008994;28;20126;-74
2024/04/08 05:29:33;;;;;;;1.85;0.60;;;19.20;83.90;;;;;;5024889;28;20548;-76
2024/04/08 05:31:58;;;;;;;6.05;0.93;;;19.70;80.70;;;;;;5008707;28;20657;-75
2024/04/08 05:34:24;;;;;;;2.88;1.05;;;20.20;77.50;;;;;;5009770;28;20718;-75
2024/04/08 05:36:50;;;;;;;4.32;0.50;;;20.60;74.30;;;;;;5009808;28;20611;-76
2024/04/08 05:39:15;;;;;;;3.15;0.82;;;20.70;72.70;;;;;;5009907;28;20483;-73
2024/04/08 05:41:41;;;;;;;2.83;0.57;;;20.80;71.70;;;;;;5009803;28;20056;-74
2024/04/08 05:44:07;;;;;;;6.07;0.70;;;21.10;71.80;;;;;;5009755;28;20120;-73
2024/04/08 05:46:33;;;;;;;1.92;0.63;;;21.30;68.90;;;;;;5009835;28;20026;-73
2024/04/08 05:48:58;;;;;;;3.78;0.80;;;21.60;67.50;;;;;;5009645;28;20037;-72
2024/04/08 05:51:27;;;;;;;5.10;0.80;;;21.70;69.00;;;;;;5024746;28;20510;-73
2024/04/08 05:53:53;;;;;;;5.60;1.15;;;22.10;63.90;;;;;;5009733;28;20506;-75
2024/04/08 05:56:20;;;;;;;2.58;0.70;;;22.40;62.00;;;;;;5008185;28;20056;-74
2024/04/08 05:58:45;;;;;;;2.85;0.65;;;22.40;62.80;;;;;;5024755;28;20156;-73
2024/04/08 06:01:12;;;;;;;6.00;0.80;;;22.50;64.10;;;;;;5024688;28;20129;-73
2024/04/08 06:03:37;;;;;;;5.25;0.98;;;22.50;65.00;;;;;;5009690;28;20034;-74
2024/04/08 06:06:06;;;;;;;7.05;1.13;;;22.60;64.90;;;;;;5008291;28;20037;-73
2024/04/08 06:08:32;;;;;;;6.60;1.65;;;22.70;65.30;;;;;;5009493;28;20033;-73
2024/04/08 06:11:02;;;;;;;2.65;0.82;;;22.90;64.60;;;;;;5002878;28;20026;-72
2024/04/08 06:13:30;;;;;;;6.78;0.88;;;23.00;59.80;;;;;;5008942;28;20025;-74
2024/04/08 06:15:56;;;;;;;3.33;0.95;;;23.20;57.70;;;;;;5007875;28;20026;-73
2024/04/08 06:18:22;;;;;;;4.68;0.90;;;23.40;56.60;;;;;;5007422;28;20045;-72
2024/04/08 06:20:55;;;;;;;8.57;0.90;;;23.30;54.90;;;;;;5009303;28;20037;-73
2024/04/08 06:23:21;;;;;;;6.35;1.00;;;23.30;54.00;;;;;;5011833;28;20034;-76
2024/04/08 06:25:47;;;;;;;5.38;0.80;;;23.40;54.40;;;;;;5013256;28;20133;-73
2024/04/08 06:28:13;;;;;;;5.07;1.00;;;23.40;53.30;;;;;;5013312;28;20022;-72
2024/04/08 06:30:39;;;;;;;2.33;0.80;;;23.30;53.20;;;;;;5013335;28;20454;-76
2024/04/08 06:33:07;;;;;;;2.08;0.80;;;23.30;53.50;;;;;;5012960;28;20387;-74
2024/04/08 06:35:32;;;;;;;5.68;0.80;;;23.50;53.60;;;;;;5012928;28;20052;-74
2024/04/08 06:37:58;;;;;;;4.32;1.42;;;23.90;52.30;;;;;;5012925;28;20475;-74
2024/04/08 06:40:24;;;;;;;3.78;0.90;;;24.20;51.70;;;;;;5013061;28;20033;-75
2024/04/08 06:42:49;;;;;;;4.03;0.90;;;24.50;52.10;;;;;;5012916;28;20513;-75
2024/04/08 06:45:15;;;;;;;2.75;0.93;;;24.70;52.20;;;;;;5028132;28;20036;-75
2024/04/08 06:47:41;;;;;;;9.95;2.15;;;24.80;51.90;;;;;;5013001;28;20028;-75
2024/04/08 06:50:06;;;;;;;7.25;1.80;;;25.00;52.70;;;;;;5027980;28;20411;-74
2024/04/08 06:52:32;;;;;;;7.60;1.58;;;25.40;51.50;;;;;;5012785;28;20033;-73
2024/04/08 06:54:58;;;;;;;11.93;1.95;;;25.80;50.70;;;;;;5028014;28;20059;-73
2024/04/08 06:57:25;;;;;;;6.65;1.73;;;26.30;50.60;;;;;;5012655;28;20406;-73
2024/04/08 06:59:51;;;;;;;8.40;2.47;;;26.80;50.10;;;;;;5012588;28;20442;-73
2024/04/08 07:02:17;;;;;;;9.18;3.47;;;27.10;48.60;;;;;;5027738;28;20026;-74
2024/04/08 07:04:43;;;;;;;10.75;2.90;;;27.50;47.60;;;;;;5012621;28;20113;-73
2024/04/08 07:07:08;;;;;;;8.82;2.90;;;28.10;45.40;;;;;;5012569;28;20076;-74
2024/04/08 07:09:34;;;;;;;6.22;2.67;;;28.50;41.00;;;;;;5012565;28;20411;-73
2024/04/08 07:12:01;;;;;;;8.52;3.05;;;28.20;40.70;;;;;;5027656;28;20498;-73
2024/04/08 07:14:27;;;;;;;7.10;2.78;;;27.70;41.60;;;;;;5027480;28;20026;-74
2024/04/08 07:16:53;;;;;;;9.55;3.25;;;27.30;42.40;;;;;;5012369;28;20026;-74
2024/04/08 07:19:19;;;;;;;10.07;3.90;;;26.90;43.10;;;;;;5027421;28;20608;-74
2024/04/08 07:21:45;;;;;;;11.30;4.38;;;26.60;42.20;;;;;;5011079;28;20030;-76
2024/04/08 07:24:11;;;;;;;8.90;5.18;;;26.30;43.60;;;;;;5010900;28;20038;-75
2024/04/08 07:26:36;;;;;;;10.50;5.38;;;26.20;43.90;;;;;;5027403;28;20030;-75
2024/04/08 07:29:02;;;;;;;11.57;4.13;;;26.10;46.60;;;;;;5010791;28;20095;-73
2024/04/08 07:31:28;;;;;;;6.18;1.80;;;26.70;44.70;;;;;;5010737;28;20076;-74
2024/04/08 07:33:53;;;;;;;7.55;1.58;;;27.20;39.50;;;;;;5009466;28;20090;-73
2024/04/08 07:36:19;;;;;;;10.27;2.17;;;27.50;38.90;;;;;;5010648;28;20128;-74
2024/04/08 07:38:46;;;;;;;6.03;2.50;;;28.00;38.30;;;;;;5027078;28;20033;-74
2024/04/08 07:41:11;;;;;;;5.72;1.60;;;28.40;35.90;;;;;;5027461;28;20502;-73
2024/04/08 07:43:37;;;;;;;5.63;2.00;;;28.50;34.20;;;;;;5011851;28;20061;-73
2024/04/08 07:46:04;;;;;;;4.07;1.63;;;28.30;34.80;;;;;;5011970;28;20030;-74
2024/04/08 07:48:29;;;;;;;11.88;1.98;;;28.10;35.10;;;;;;5011848;28;20376;-73
2024/04/08 07:50:56;;;;;;;5.65;2.17;;;27.90;34.80;;;;;;5011903;28;20018;-74
2024/04/08 07:53:22;;;;;;;8.48;3.13;;;27.70;34.70;;;;;;5010548;28;20637;-74
2024/04/08 07:55:47;;;;;;;8.40;3.28;;;27.40;35.00;;;;;;5011773;28;20109;-73
2024/04/08 07:58:13;;;;;;;5.95;2.47;;;27.10;36.30;;;;;;5010303;28;20129;-73
2024/04/08 08:00:39;;;;;;;11.98;2.90;;;26.70;35.80;;;;;;5011347;28;20022;-73
2024/04/08 08:03:05;;;;;;;8.45;2.03;;;26.40;36.60;;;;;;5010315;28;20052;-74
2024/04/08 08:05:31;;;;;;;6.22;1.98;;;26.20;38.00;;;;;;5011359;28;20041;-74
2024/04/08 08:07:59;;;;;;;6.35;1.55;;;26.50;37.50;;;;;;5010999;28;20060;-72
2024/04/08 08:10:25;;;;;;;5.90;1.50;;;26.70;37.20;;;;;;5009964;28;20112;-73
2024/04/08 08:12:51;;;;;;;3.90;1.60;;;26.90;37.40;;;;;;5011331;28;20125;-73
2024/04/08 08:15:16;;;;;;;2.17;1.15;;;27.20;37.00;;;;;;5011183;28;20030;-73
2024/04/08 08:17:42;;;;;;;1.73;0.90;;;27.40;36.10;;;;;;5026098;28;20030;-74
2024/04/08 08:20:08;;;;;;;5.95;0.80;;;27.70;35.00;;;;;;5011017;28;20400;-74
2024/04/08 08:22:34;;;;;;;5.57;1.00;;;28.00;35.80;;;;;;5026311;28;20062;-76
2024/04/08 08:27:43;;;;;;;7.18;1.10;;;28.80;34.10;;;;;;5011049;28;20036;-76
2024/04/08 08:30:15;;;;;;;3.78;1.15;;;29.00;33.60;;;;;;5011068;28;20464;-73
2024/04/08 08:32:41;;;;;;;6.20;1.10;;;28.90;33.60;;;;;;5011006;28;20037;-76
2024/04/08 08:35:06;;;;;;;3.15;1.08;;;29.10;33.80;;;;;;5026080;28;20026;-76
2024/04/08 08:37:32;;;;;;;7.40;1.20;;;29.20;34.20;;;;;;5010766;28;20030;-77
2024/04/08 08:39:58;;;;;;;5.63;1.48;;;29.60;34.30;;;;;;5010969;28;20025;-77
2024/04/08 08:42:28;;;;;;;3.03;1.17;;;29.90;33.20;;;;;;5010646;28;20030;-76
2024/04/08 08:44:56;;;;;;;2.65;0.80;;;30.00;32.50;;;;;;5009023;28;20123;-75
2024/04/08 08:47:23;;;;;;;1.88;1.02;;;29.80;32.20;;;;;;5009281;28;20099;-75
2024/04/08 08:49:53;;;;;;;2.35;0.82;;;29.70;32.80;;;;;;5009079;28;20403;-77
2024/04/08 08:52:20;;;;;;;2.35;0.95;;;29.80;33.70;;;;;;5010702;28;20112;-76
2024/04/08 08:54:46;;;;;;;5.03;1.10;;;29.90;32.90;;;;;;5010455;28;20021;-76
2024/04/08 08:57:12;;;;;;;6.20;0.98;;;29.80;32.20;;;;;;5025701;28;20502;-76
2024/04/08 08:59:40;;;;;;;3.78;1.27;;;29.70;32.80;;;;;;5010318;28;20018;-76
2024/04/08 09:02:11;;;;;;;4.28;1.35;;;29.50;33.20;;;;;;5008830;28;20033;-76
2024/04/08 09:04:37;;;;;;;4.75;1.40;;;29.30;33.60;;;;;;5010490;28;20176;-75
2024/04/08 09:07:02;;;;;;;8.50;1.23;;;29.00;33.90;;;;;;5009080;28;20112;-76
2024/04/08 09:09:28;;;;;;;3.63;1.80;;;28.90;34.20;;;;;;5010343;28;20061;-76
2024/04/08 09:11:54;;;;;;;6.60;1.35;;;29.00;34.50;;;;;;5010272;28;20041;-76
2024/04/08 09:14:20;;;;;;;3.92;1.23;;;28.80;34.50;;;;;;5025636;28;20037;-75
2024/04/08 09:16:48;;;;;;;2.47;1.17;;;28.80;35.40;;;;;;5025570;28;20026;-76
2024/04/08 09:19:14;;;;;;;4.60;1.38;;;28.90;36.00;;;;;;5010033;28;20061;-75
2024/04/08 09:21:40;;;;;;;9.40;1.35;;;29.10;33.90;;;;;;5009860;28;20045;-76
2024/04/08 09:24:07;;;;;;;13.43;1.38;;;28.90;34.40;;;;;;5025230;28;20050;-76
2024/04/08 09:27:46;;;;;;;5.57;0.80;;;28.50;34.30;;;;;;5431224;26;20351;-75
2024/04/08 09:30:12;;;;;;;3.63;0.90;;;28.40;34.40;;;;;;5429616;26;20084;-75
2024/04/08 09:32:38;;;;;;;2.67;1.38;;;28.30;34.90;;;;;;5429598;26;20120;-76
2024/04/08 09:35:06;;;;;;;3.50;0.80;;;28.30;35.90;;;;;;5430925;26;19996;-76
2024/04/08 09:37:33;;;;;;;2.05;1.10;;;28.70;35.10;;;;;;5429587;26;20003;-76
2024/04/08 09:40:00;;;;;;;2.42;0.90;;;28.90;35.10;;;;;;5429641;26;19999;-76
2024/04/08 09:42:32;;;;;;;4.07;1.20;;;29.20;35.60;;;;;;5431480;26;20044;-76
2024/04/08 09:44:59;;;;;;;2.95;1.08;;;29.30;34.70;;;;;;5429325;26;20032;-73
2024/04/08 09:47:27;;;;;;;3.58;1.10;;;29.60;33.40;;;;;;5429082;26;20014;-77
2024/04/08 09:49:55;;;;;;;4.50;1.48;;;29.50;33.60;;;;;;5429863;26;20014;-75
2024/04/08 09:52:21;;;;;;;6.15;1.05;;;29.10;34.60;;;;;;5431627;26;20444;-75
2024/04/08 09:54:46;;;;;;;7.95;1.10;;;29.10;33.70;;;;;;5431774;26;20026;-75
2024/04/08 09:57:15;;;;;;;3.58;1.00;;;29.10;32.60;;;;;;5431157;26;20010;-76
2024/04/08 09:59:43;;;;;;;4.25;1.20;;;28.80;33.90;;;;;;5429618;26;20069;-75
2024/04/08 10:02:24;;;;;;;3.65;1.13;;;28.90;34.50;;;;;;5431698;26;20008;-76
2024/04/08 10:04:56;;;;;;;6.72;1.17;;;29.20;33.00;;;;;;5431085;26;20014;-75
2024/04/08 10:07:22;;;;;;;2.00;1.10;;;29.10;33.70;;;;;;5431172;26;20003;-75
2024/04/08 10:09:49;;;;;;;4.07;1.08;;;29.10;33.50;;;;;;5429478;26;20008;-75
2024/04/08 10:12:14;;;;;;;4.75;1.00;;;29.10;33.30;;;;;;5431343;26;20102;-75
2024/04/08 10:14:40;;;;;;;2.28;0.90;;;28.90;32.80;;;;;;5431226;26;20008;-74
2024/04/08 10:17:08;;;;;;;2.60;0.98;;;29.00;34.40;;;;;;5431322;26;20000;-75
2024/04/08 10:19:34;;;;;;;2.80;0.93;;;29.40;34.00;;;;;;5431333;26;20003;-76
2024/04/08 10:22:01;;;;;;;3.40;0.93;;;30.00;32.70;;;;;;5429466;26;20003;-75
2024/04/08 10:24:47;;;;;;;4.15;0.82;;;30.20;31.70;;;;;;5431119;26;20076;-75
2024/04/08 10:27:13;;;;;;;3.08;1.13;;;30.00;31.90;;;;;;5430696;26;20011;-76
2024/04/08 10:29:40;;;;;;;3.00;1.10;;;29.70;32.20;;;;;;5430715;26;20000;-75
2024/04/08 10:32:06;;;;;;;3.15;1.23;;;29.30;32.40;;;;;;5429524;26;19999;-76
2024/04/08 10:34:35;;;;;;;8.60;0.90;;;29.00;32.80;;;;;;5430993;26;20003;-73
2024/04/08 10:37:01;;;;;;;5.60;0.95;;;28.60;33.80;;;;;;5428024;26;20049;-72
2024/04/08 10:39:27;;;;;;;3.83;0.95;;;28.00;34.20;;;;;;5413531;26;20043;-73
2024/04/08 10:41:56;;;;;;;2.33;0.70;;;27.40;34.90;;;;;;5415634;26;20004;-73
2024/04/08 10:44:22;;;;;;;2.80;1.00;;;27.00;34.80;;;;;;5413682;26;19999;-75
2024/04/08 10:46:47;;;;;;;8.80;1.20;;;26.80;36.50;;;;;;5415566;26;20014;-75
2024/04/08 10:49:13;;;;;;;5.82;1.48;;;26.80;36.10;;;;;;5415425;26;20003;-74
2024/04/08 10:51:39;;;;;;;17.88;0.90;;;26.70;36.80;;;;;;5415343;26;20000;-75
2024/04/08 10:54:04;;;;;;;4.93;0.82;;;26.70;36.50;;;;;;5413437;26;19999;-76
2024/04/08 10:56:30;;;;;;;4.50;0.88;;;26.50;37.40;;;;;;5413439;26;20061;-75
2024/04/08 10:58:56;;;;;;;8.10;1.08;;;26.30;36.80;;;;;;5413346;26;20003;-75
2024/04/08 11:01:22;;;;;;;4.22;0.70;;;26.10;38.20;;;;;;5413785;26;20445;-74
2024/04/08 11:03:48;;;;;;;2.53;0.80;;;25.90;38.30;;;;;;5413608;26;20000;-75
2024/04/08 11:06:14;;;;;;;15.38;0.70;;;25.70;38.40;;;;;;5413285;26;19999;-75
2024/04/08 11:08:40;;;;;;;2.72;0.77;;;25.50;38.40;;;;;;5415080;26;20018;-75
2024/04/08 11:11:06;;;;;;;6.63;0.73;;;25.40;39.70;;;;;;5413327;26;20332;-75
2024/04/08 11:13:32;;;;;;;5.57;1.05;;;25.50;40.30;;;;;;5413033;26;20004;-74
2024/04/08 11:15:58;;;;;;;1.73;0.60;;;25.40;40.00;;;;;;5414722;26;20786;-74
2024/04/08 11:18:24;;;;;;;1.50;0.60;;;25.50;39.50;;;;;;5412440;26;19996;-75
2024/04/08 11:20:50;;;;;;;3.00;1.02;;;25.40;39.60;;;;;;5414590;26;20031;-75
2024/04/08 11:23:19;;;;;;;2.50;0.80;;;25.40;41.10;;;;;;5412918;26;20011;-75
2024/04/08 11:25:45;;;;;;;4.15;1.40;;;25.50;40.20;;;;;;5412594;26;20000;-75
2024/04/08 11:28:11;;;;;;;4.93;0.68;;;25.50;39.00;;;;;;5415275;26;20080;-75
2024/04/08 11:30:37;;;;;;;3.92;0.80;;;25.40;39.90;;;;;;5413873;26;20348;-75
2024/04/08 11:33:03;;;;;;;2.08;0.50;;;25.40;40.30;;;;;;5407807;26;20006;-76
2024/04/08 11:35:29;;;;;;;4.70;1.05;;;25.30;38.70;;;;;;5412916;26;19999;-75
2024/04/08 11:37:56;;;;;;;8.73;0.75;;;25.30;39.00;;;;;;5414583;26;20015;-74
2024/04/08 11:40:21;;;;;;;3.58;0.60;;;25.20;38.30;;;;;;5414837;26;20010;-76
2024/04/08 11:42:47;;;;;;;2.90;0.63;;;25.30;39.60;;;;;;5414837;26;20007;-75
2024/04/08 11:45:14;;;;;;;5.13;0.90;;;25.30;38.60;;;;;;5415148;26;19995;-75
2024/04/08 11:47:39;;;;;;;6.97;0.82;;;25.30;38.40;;;;;;5412640;26;20337;-75
2024/04/08 11:50:05;;;;;;;6.35;0.60;;;25.30;37.90;;;;;;5414591;26;20075;-75
2024/04/08 11:52:33;;;;;;;2.78;0.60;;;25.30;37.90;;;;;;5412963;26;20349;-74
2024/04/08 11:54:59;;;;;;;1.88;0.47;;;25.40;38.90;;;;;;5412575;26;20405;-74
2024/04/08 11:57:24;;;;;;;2.92;0.77;;;25.40;39.10;;;;;;5412589;26;20007;-75
2024/04/08 11:59:50;;;;;;;3.28;0.68;;;25.40;37.10;;;;;;5411835;26;20574;-76
2024/04/08 12:02:16;;;;;;;16.83;1.35;;;25.50;37.40;;;;;;5412582;26;20003;-75
2024/04/08 12:04:46;;;;;;;3.08;0.50;;;25.50;37.40;;;;;;5411771;26;20467;-75
2024/04/08 12:07:12;;;;;;;3.97;0.77;;;25.60;37.60;;;;;;5412136;26;19999;-75
2024/04/08 12:09:41;;;;;;;2.97;0.85;;;25.60;37.10;;;;;;5412267;26;20105;-76
2024/04/08 12:12:09;;;;;;;8.25;0.50;;;25.60;37.20;;;;;;5414053;26;20038;-75
2024/04/08 12:14:35;;;;;;;3.67;0.85;;;25.70;36.60;;;;;;5411933;26;19995;-75
2024/04/08 12:17:01;;;;;;;7.22;0.85;;;25.70;36.60;;;;;;5411830;26;19996;-75
2024/04/08 12:19:28;;;;;;;2.08;0.45;;;25.80;37.70;;;;;;5414243;26;20084;-75
2024/04/08 12:21:53;;;;;;;3.13;0.52;;;25.90;35.80;;;;;;5413948;26;20004;-74
2024/04/08 12:24:19;;;;;;;8.20;0.90;;;26.00;36.30;;;;;;5413441;26;20022;-75
2024/04/08 12:26:45;;;;;;;5.00;1.02;;;26.10;37.20;;;;;;5411745;26;20326;-75
2024/04/08 12:29:10;;;;;;;2.10;0.60;;;26.10;35.80;;;;;;5413850;26;20004;-74
2024/04/08 12:31:36;;;;;;;7.80;0.80;;;26.10;35.80;;;;;;5406574;26;20426;-74
2024/04/08 12:34:02;;;;;;;3.03;0.65;;;26.10;36.20;;;;;;5414229;26;20051;-74
2024/04/08 12:36:28;;;;;;;3.88;0.55;;;26.10;35.10;;;;;;5414061;26;19992;-75
2024/04/08 12:38:56;;;;;;;7.30;0.73;;;26.00;35.60;;;;;;5413904;26;20049;-75
2024/04/08 12:41:22;;;;;;;3.33;0.70;;;26.20;35.80;;;;;;5412258;26;20035;-74
2024/04/08 12:43:48;;;;;;;3.28;0.47;;;26.20;35.20;;;;;;5413339;26;19999;-75
2024/04/08 12:46:14;;;;;;;3.67;0.57;;;26.20;35.50;;;;;;5413413;26;20017;-74
2024/04/08 12:48:40;;;;;;;8.77;0.45;;;26.30;37.10;;;;;;5411674;26;20072;-75
2024/04/08 12:51:05;;;;;;;2.65;0.80;;;26.60;36.30;;;;;;5411694;26;20015;-76
2024/04/08 12:53:31;;;;;;;4.43;0.65;;;26.60;34.10;;;;;;5413308;26;20001;-76
2024/04/08 12:55:57;;;;;;;2.42;0.63;;;26.60;34.50;;;;;;5411630;26;20109;-74